sensor_id;sensor_type;location;lat;lon;timestamp;P1;durP1;ratioP1;P2;durP2;ratioP2
16387;SDS011;8303;53.446;9.988;2022-09-29T04:46:10;44.17;;;21.00;;
16387;SDS011;8303;53.446;9.988;2022-09-29T04:48:39;47.50;;;23.47;;
16387;SDS011;8303;53.446;9.988;2022-09-29T04:51:06;40.87;;;20.87;;
16387;SDS011;8303;53.446;9.988;2022-09-29T04:53:34;42.70;;;21.73;;
16387;SDS011;8303;53.446;9.988;2022-09-29T04:56:05;36.00;;;20.37;;
16387;SDS011;8303;53.446;9.988;2022-09-29T04:58:32;45.10;;;22.27;;
16387;SDS011;8303;53.446;9.988;2022-09-29T05:01:03;40.60;;;21.57;;
16387;SDS011;8303;53.446;9.988;2022-09-29T05:03:32;40.67;;;21.00;;
16387;SDS011;8303;53.446;9.988;2022-09-29T05:05:59;38.03;;;20.93;;
16387;SDS011;8303;53.446;9.988;2022-09-29T05:08:26;41.43;;;21.03;;
16387;SDS011;8303;53.446;9.988;2022-09-29T05:10:53;41.83;;;21.77;;
16387;SDS011;8303;53.446;9.988;2022-09-29T05:13:19;47.70;;;22.33;;
16387;SDS011;8303;53.446;9.988;2022-09-29T05:15:46;44.87;;;21.43;;
16387;SDS011;8303;53.446;9.988;2022-09-29T05:18:13;47.23;;;23.23;;
16387;SDS011;8303;53.446;9.988;2022-09-29T05:20:41;48.77;;;23.40;;
16387;SDS011;8303;53.446;9.988;2022-09-29T05:23:08;50.47;;;24.33;;
16387;SDS011;8303;53.446;9.988;2022-09-29T05:25:35;43.80;;;23.10;;
16387;SDS011;8303;53.446;9.988;2022-09-29T05:28:02;50.87;;;23.27;;
16387;SDS011;8303;53.446;9.988;2022-09-29T05:30:29;48.33;;;23.13;;
16387;SDS011;8303;53.446;9.988;2022-09-29T05:32:56;53.27;;;24.97;;
16387;SDS011;8303;53.446;9.988;2022-09-29T05:35:23;50.60;;;24.20;;
16387;SDS011;8303;53.446;9.988;2022-09-29T05:37:52;52.23;;;23.50;;
16387;SDS011;8303;53.446;9.988;2022-09-29T05:40:18;55.33;;;25.90;;
16387;SDS011;8303;53.446;9.988;2022-09-29T05:42:48;49.00;;;23.63;;
16387;SDS011;8303;53.446;9.988;2022-09-29T05:45:15;52.20;;;24.73;;
16387;SDS011;8303;53.446;9.988;2022-09-29T05:47:43;53.43;;;25.50;;
16387;SDS011;8303;53.446;9.988;2022-09-29T05:50:10;60.73;;;25.83;;
16387;SDS011;8303;53.446;9.988;2022-09-29T05:52:40;59.93;;;26.70;;
16387;SDS011;8303;53.446;9.988;2022-09-29T05:55:09;56.93;;;27.73;;
16387;SDS011;8303;53.446;9.988;2022-09-29T05:57:36;52.43;;;27.33;;
16387;SDS011;8303;53.446;9.988;2022-09-29T06:00:03;59.77;;;27.20;;
16387;SDS011;8303;53.446;9.988;2022-09-29T06:02:32;63.37;;;29.57;;
16387;SDS011;8303;53.446;9.988;2022-09-29T06:04:59;61.77;;;28.47;;
16387;SDS011;8303;53.446;9.988;2022-09-29T06:07:26;56.70;;;28.97;;
16387;SDS011;8303;53.446;9.988;2022-09-29T06:09:53;64.23;;;30.33;;
16387;SDS011;8303;53.446;9.988;2022-09-29T06:12:21;63.33;;;28.87;;
16387;SDS011;8303;53.446;9.988;2022-09-29T06:14:48;59.43;;;28.80;;
16387;SDS011;8303;53.446;9.988;2022-09-29T06:17:15;66.30;;;29.83;;
16387;SDS011;8303;53.446;9.988;2022-09-29T06:19:42;63.03;;;30.20;;
16387;SDS011;8303;53.446;9.988;2022-09-29T06:22:09;66.67;;;31.03;;
16387;SDS011;8303;53.446;9.988;2022-09-29T06:24:36;69.70;;;31.03;;
16387;SDS011;8303;53.446;9.988;2022-09-29T06:27:02;59.73;;;30.00;;
16387;SDS011;8303;53.446;9.988;2022-09-29T06:29:31;59.97;;;28.70;;
16387;SDS011;8303;53.446;9.988;2022-09-29T06:31:58;66.87;;;30.10;;
16387;SDS011;8303;53.446;9.988;2022-09-29T06:34:27;58.97;;;29.77;;
16387;SDS011;8303;53.446;9.988;2022-09-29T06:36:54;61.53;;;29.60;;
16387;SDS011;8303;53.446;9.988;2022-09-29T06:39:38;63.03;;;30.93;;
16387;SDS011;8303;53.446;9.988;2022-09-29T06:42:07;59.67;;;30.90;;
16387;SDS011;8303;53.446;9.988;2022-09-29T06:44:36;65.60;;;30.80;;
16387;SDS011;8303;53.446;9.988;2022-09-29T06:47:03;64.83;;;30.70;;
16387;SDS011;8303;53.446;9.988;2022-09-29T06:49:30;68.10;;;31.83;;
16387;SDS011;8303;53.446;9.988;2022-09-29T06:51:57;60.57;;;31.30;;
16387;SDS011;8303;53.446;9.988;2022-09-29T06:54:24;65.17;;;31.27;;
16387;SDS011;8303;53.446;9.988;2022-09-29T06:56:51;54.80;;;29.97;;
16387;SDS011;8303;53.446;9.988;2022-09-29T06:59:19;60.90;;;29.50;;
16387;SDS011;8303;53.446;9.988;2022-09-29T07:01:47;64.57;;;31.07;;
16387;SDS011;8303;53.446;9.988;2022-09-29T07:04:14;64.13;;;30.23;;
16387;SDS011;8303;53.446;9.988;2022-09-29T07:06:43;54.73;;;29.40;;
16387;SDS011;8303;53.446;9.988;2022-09-29T07:09:10;57.17;;;29.93;;
16387;SDS011;8303;53.446;9.988;2022-09-29T07:11:40;54.83;;;29.13;;
16387;SDS011;8303;53.446;9.988;2022-09-29T07:14:09;53.43;;;28.33;;
16387;SDS011;8303;53.446;9.988;2022-09-29T07:16:36;57.60;;;30.70;;
16387;SDS011;8303;53.446;9.988;2022-09-29T07:19:04;58.17;;;29.57;;
16387;SDS011;8303;53.446;9.988;2022-09-29T07:21:31;49.13;;;26.90;;
16387;SDS011;8303;53.446;9.988;2022-09-29T07:23:58;50.60;;;27.60;;
16387;SDS011;8303;53.446;9.988;2022-09-29T07:26:26;53.23;;;27.87;;
16387;SDS011;8303;53.446;9.988;2022-09-29T07:28:53;51.17;;;28.60;;
16387;SDS011;8303;53.446;9.988;2022-09-29T07:31:20;51.50;;;28.20;;
16387;SDS011;8303;53.446;9.988;2022-09-29T07:33:48;48.83;;;27.93;;
16387;SDS011;8303;53.446;9.988;2022-09-29T07:36:19;49.30;;;27.63;;
16387;SDS011;8303;53.446;9.988;2022-09-29T07:38:46;44.90;;;25.63;;
16387;SDS011;8303;53.446;9.988;2022-09-29T07:41:14;38.37;;;24.73;;
16387;SDS011;8303;53.446;9.988;2022-09-29T07:43:42;41.57;;;26.67;;
16387;SDS011;8303;53.446;9.988;2022-09-29T07:46:12;39.57;;;23.23;;
16387;SDS011;8303;53.446;9.988;2022-09-29T07:48:39;43.40;;;24.20;;
16387;SDS011;8303;53.446;9.988;2022-09-29T07:51:07;35.03;;;21.80;;
16387;SDS011;8303;53.446;9.988;2022-09-29T07:53:37;33.93;;;21.53;;
16387;SDS011;8303;53.446;9.988;2022-09-29T07:56:07;34.90;;;22.43;;
16387;SDS011;8303;53.446;9.988;2022-09-29T07:58:36;30.83;;;19.97;;
16387;SDS011;8303;53.446;9.988;2022-09-29T08:01:07;32.40;;;21.27;;
16387;SDS011;8303;53.446;9.988;2022-09-29T08:03:36;29.33;;;19.97;;
16387;SDS011;8303;53.446;9.988;2022-09-29T08:06:04;31.30;;;20.77;;
16387;SDS011;8303;53.446;9.988;2022-09-29T08:08:31;28.93;;;19.47;;
16387;SDS011;8303;53.446;9.988;2022-09-29T08:11:02;28.73;;;18.67;;
16387;SDS011;8303;53.446;9.988;2022-09-29T08:13:33;29.83;;;19.10;;
16387;SDS011;8303;53.446;9.988;2022-09-29T08:16:03;25.00;;;17.27;;
16387;SDS011;8303;53.446;9.988;2022-09-29T08:18:32;24.70;;;17.27;;
16387;SDS011;8303;53.446;9.988;2022-09-29T08:21:00;25.13;;;16.37;;
16387;SDS011;8303;53.446;9.988;2022-09-29T08:23:33;24.80;;;16.50;;
16387;SDS011;8303;53.446;9.988;2022-09-29T08:26:03;22.67;;;16.37;;
16387;SDS011;8303;53.446;9.988;2022-09-29T08:28:32;26.77;;;16.37;;
16387;SDS011;8303;53.446;9.988;2022-09-29T08:31:01;22.90;;;16.30;;
16387;SDS011;8303;53.446;9.988;2022-09-29T08:33:30;26.57;;;16.10;;
16387;SDS011;8303;53.446;9.988;2022-09-29T08:36:00;23.07;;;15.37;;
16387;SDS011;8303;53.446;9.988;2022-09-29T08:38:30;23.60;;;16.07;;
16387;SDS011;8303;53.446;9.988;2022-09-29T08:41:14;20.83;;;15.20;;
16387;SDS011;8303;53.446;9.988;2022-09-29T08:43:55;21.97;;;16.23;;
16387;SDS011;8303;53.446;9.988;2022-09-29T08:46:26;22.03;;;15.67;;
16387;SDS011;8303;53.446;9.988;2022-09-29T08:48:57;22.77;;;15.03;;
16387;SDS011;8303;53.446;9.988;2022-09-29T08:51:28;21.70;;;15.57;;
16387;SDS011;8303;53.446;9.988;2022-09-29T08:54:01;20.67;;;14.27;;
16387;SDS011;8303;53.446;9.988;2022-09-29T08:56:36;20.27;;;14.57;;
16387;SDS011;8303;53.446;9.988;2022-09-29T08:59:04;23.40;;;15.83;;
16387;SDS011;8303;53.446;9.988;2022-09-29T09:01:37;25.50;;;16.97;;
16387;SDS011;8303;53.446;9.988;2022-09-29T09:07:23;23.23;;;16.57;;
16387;SDS011;8303;53.446;9.988;2022-09-29T09:10:02;22.83;;;16.83;;
16387;SDS011;8303;53.446;9.988;2022-09-29T09:12:57;25.50;;;16.20;;
16387;SDS011;8303;53.446;9.988;2022-09-29T09:15:49;22.97;;;16.33;;
16387;SDS011;8303;53.446;9.988;2022-09-29T09:18:41;25.63;;;17.83;;
16387;SDS011;8303;53.446;9.988;2022-09-29T09:21:31;27.20;;;18.27;;
16387;SDS011;8303;53.446;9.988;2022-09-29T09:24:07;29.67;;;19.83;;
16387;SDS011;8303;53.446;9.988;2022-09-29T09:26:42;27.60;;;19.23;;
16387;SDS011;8303;53.446;9.988;2022-09-29T09:29:13;29.17;;;19.20;;
16387;SDS011;8303;53.446;9.988;2022-09-29T09:31:45;28.40;;;19.07;;
16387;SDS011;8303;53.446;9.988;2022-09-29T09:34:18;29.13;;;20.10;;
16387;SDS011;8303;53.446;9.988;2022-09-29T09:36:49;31.67;;;20.53;;
16387;SDS011;8303;53.446;9.988;2022-09-29T09:39:21;29.53;;;18.77;;
16387;SDS011;8303;53.446;9.988;2022-09-29T09:41:56;27.23;;;17.70;;
16387;SDS011;8303;53.446;9.988;2022-09-29T09:44:32;28.43;;;18.20;;
16387;SDS011;8303;53.446;9.988;2022-09-29T09:47:08;22.87;;;16.50;;
16387;SDS011;8303;53.446;9.988;2022-09-29T09:49:48;22.10;;;14.13;;
16387;SDS011;8303;53.446;9.988;2022-09-29T09:52:21;21.20;;;14.20;;
16387;SDS011;8303;53.446;9.988;2022-09-29T09:54:52;19.40;;;14.07;;
16387;SDS011;8303;53.446;9.988;2022-09-29T09:57:31;19.17;;;13.37;;
16387;SDS011;8303;53.446;9.988;2022-09-29T10:00:13;18.27;;;12.97;;
16387;SDS011;8303;53.446;9.988;2022-09-29T10:02:42;22.13;;;12.30;;
16387;SDS011;8303;53.446;9.988;2022-09-29T10:05:12;17.63;;;11.77;;
16387;SDS011;8303;53.446;9.988;2022-09-29T10:07:41;16.47;;;11.53;;
16387;SDS011;8303;53.446;9.988;2022-09-29T10:10:14;15.37;;;11.60;;
16387;SDS011;8303;53.446;9.988;2022-09-29T10:12:43;14.10;;;10.53;;
16387;SDS011;8303;53.446;9.988;2022-09-29T10:15:14;14.37;;;10.23;;
16387;SDS011;8303;53.446;9.988;2022-09-29T10:17:46;12.13;;;8.90;;
16387;SDS011;8303;53.446;9.988;2022-09-29T10:20:27;12.40;;;10.00;;
16387;SDS011;8303;53.446;9.988;2022-09-29T10:23:10;14.03;;;10.53;;
16387;SDS011;8303;53.446;9.988;2022-09-29T10:25:56;11.93;;;8.67;;
16387;SDS011;8303;53.446;9.988;2022-09-29T10:28:27;11.03;;;9.07;;
16387;SDS011;8303;53.446;9.988;2022-09-29T10:31:03;10.13;;;7.80;;
16387;SDS011;8303;53.446;9.988;2022-09-29T10:33:45;11.53;;;9.17;;
16387;SDS011;8303;53.446;9.988;2022-09-29T10:36:14;8.73;;;6.90;;
16387;SDS011;8303;53.446;9.988;2022-09-29T10:38:44;10.67;;;8.50;;
16387;SDS011;8303;53.446;9.988;2022-09-29T10:41:12;9.43;;;7.47;;
16387;SDS011;8303;53.446;9.988;2022-09-29T10:43:40;9.13;;;6.80;;
16387;SDS011;8303;53.446;9.988;2022-09-29T10:46:34;8.93;;;7.00;;
16387;SDS011;8303;53.446;9.988;2022-09-29T10:49:07;9.43;;;7.43;;
16387;SDS011;8303;53.446;9.988;2022-09-29T10:51:35;10.90;;;8.10;;
16387;SDS011;8303;53.446;9.988;2022-09-29T10:54:05;9.57;;;7.57;;
16387;SDS011;8303;53.446;9.988;2022-09-29T10:56:34;11.60;;;8.03;;
16387;SDS011;8303;53.446;9.988;2022-09-29T10:59:05;11.40;;;8.10;;
16387;SDS011;8303;53.446;9.988;2022-09-29T11:01:33;12.03;;;7.73;;
16387;SDS011;8303;53.446;9.988;2022-09-29T11:04:14;10.07;;;7.80;;
16387;SDS011;8303;53.446;9.988;2022-09-29T11:06:45;10.87;;;8.33;;
16387;SDS011;8303;53.446;9.988;2022-09-29T11:09:27;8.30;;;7.03;;
16387;SDS011;8303;53.446;9.988;2022-09-29T11:11:58;13.10;;;8.87;;
16387;SDS011;8303;53.446;9.988;2022-09-29T11:14:26;14.13;;;8.40;;
16387;SDS011;8303;53.446;9.988;2022-09-29T11:16:58;11.60;;;8.30;;
16387;SDS011;8303;53.446;9.988;2022-09-29T11:19:26;12.37;;;8.50;;
16387;SDS011;8303;53.446;9.988;2022-09-29T11:25:06;10.47;;;8.17;;
16387;SDS011;8303;53.446;9.988;2022-09-29T11:30:55;11.90;;;9.13;;
16387;SDS011;8303;53.446;9.988;2022-09-29T11:33:42;14.90;;;9.83;;
16387;SDS011;8303;53.446;9.988;2022-09-29T11:36:19;12.40;;;9.10;;
16387;SDS011;8303;53.446;9.988;2022-09-29T11:38:54;13.93;;;10.23;;
16387;SDS011;8303;53.446;9.988;2022-09-29T11:41:48;14.13;;;10.03;;
16387;SDS011;8303;53.446;9.988;2022-09-29T11:47:29;17.67;;;9.73;;
16387;SDS011;8303;53.446;9.988;2022-09-29T11:50:18;15.63;;;10.00;;
16387;SDS011;8303;53.446;9.988;2022-09-29T11:52:55;15.50;;;10.07;;
16387;SDS011;8303;53.446;9.988;2022-09-29T11:55:46;14.53;;;10.10;;
16387;SDS011;8303;53.446;9.988;2022-09-29T11:58:26;17.30;;;10.30;;
16387;SDS011;8303;53.446;9.988;2022-09-29T12:01:10;17.27;;;9.77;;
16387;SDS011;8303;53.446;9.988;2022-09-29T12:03:48;14.57;;;10.77;;
16387;SDS011;8303;53.446;9.988;2022-09-29T12:06:33;16.13;;;11.13;;
16387;SDS011;8303;53.446;9.988;2022-09-29T12:09:18;16.00;;;11.53;;
16387;SDS011;8303;53.446;9.988;2022-09-29T12:11:59;16.30;;;11.60;;
16387;SDS011;8303;53.446;9.988;2022-09-29T12:14:36;17.23;;;12.10;;
16387;SDS011;8303;53.446;9.988;2022-09-29T12:17:09;14.40;;;11.57;;
16387;SDS011;8303;53.446;9.988;2022-09-29T12:19:40;19.30;;;11.87;;
16387;SDS011;8303;53.446;9.988;2022-09-29T12:22:13;18.43;;;13.13;;
16387;SDS011;8303;53.446;9.988;2022-09-29T12:24:44;16.30;;;12.60;;
16387;SDS011;8303;53.446;9.988;2022-09-29T12:27:17;16.57;;;11.80;;
16387;SDS011;8303;53.446;9.988;2022-09-29T12:29:47;16.70;;;12.63;;
16387;SDS011;8303;53.446;9.988;2022-09-29T12:32:19;16.83;;;12.43;;
16387;SDS011;8303;53.446;9.988;2022-09-29T12:34:51;17.63;;;12.47;;
16387;SDS011;8303;53.446;9.988;2022-09-29T12:37:24;19.40;;;10.90;;
16387;SDS011;8303;53.446;9.988;2022-09-29T12:39:58;14.10;;;10.53;;
16387;SDS011;8303;53.446;9.988;2022-09-29T12:42:34;18.33;;;11.20;;
16387;SDS011;8303;53.446;9.988;2022-09-29T12:45:10;16.77;;;11.40;;
16387;SDS011;8303;53.446;9.988;2022-09-29T12:47:46;17.63;;;12.30;;
16387;SDS011;8303;53.446;9.988;2022-09-29T12:50:21;15.67;;;12.07;;
16387;SDS011;8303;53.446;9.988;2022-09-29T12:52:55;17.70;;;12.40;;
16387;SDS011;8303;53.446;9.988;2022-09-29T12:55:28;19.80;;;13.23;;
16387;SDS011;8303;53.446;9.988;2022-09-29T12:58:05;16.63;;;12.03;;
16387;SDS011;8303;53.446;9.988;2022-09-29T13:00:39;16.87;;;11.93;;
16387;SDS011;8303;53.446;9.988;2022-09-29T13:03:19;16.30;;;11.97;;
16387;SDS011;8303;53.446;9.988;2022-09-29T13:09:08;17.20;;;12.37;;
16387;SDS011;8303;53.446;9.988;2022-09-29T13:12:04;18.77;;;13.83;;
16387;SDS011;8303;53.446;9.988;2022-09-29T13:14:50;18.53;;;13.80;;
16387;SDS011;8303;53.446;9.988;2022-09-29T13:17:41;19.70;;;13.90;;
16387;SDS011;8303;53.446;9.988;2022-09-29T13:20:36;15.83;;;12.67;;
16387;SDS011;8303;53.446;9.988;2022-09-29T13:26:26;16.83;;;13.20;;
16387;SDS011;8303;53.446;9.988;2022-09-29T13:29:02;21.07;;;16.40;;
16387;SDS011;8303;53.446;9.988;2022-09-29T13:31:36;19.00;;;14.00;;
16387;SDS011;8303;53.446;9.988;2022-09-29T13:34:05;17.73;;;14.13;;
16387;SDS011;8303;53.446;9.988;2022-09-29T13:36:33;21.80;;;14.07;;
16387;SDS011;8303;53.446;9.988;2022-09-29T13:39:05;19.40;;;13.53;;
16387;SDS011;8303;53.446;9.988;2022-09-29T13:41:45;18.07;;;12.73;;
16387;SDS011;8303;53.446;9.988;2022-09-29T13:44:20;17.63;;;13.43;;
16387;SDS011;8303;53.446;9.988;2022-09-29T13:46:51;18.53;;;13.27;;
16387;SDS011;8303;53.446;9.988;2022-09-29T13:49:27;17.77;;;11.60;;
16387;SDS011;8303;53.446;9.988;2022-09-29T13:51:56;16.03;;;11.67;;
16387;SDS011;8303;53.446;9.988;2022-09-29T13:54:29;16.00;;;11.60;;
16387;SDS011;8303;53.446;9.988;2022-09-29T13:57:06;14.87;;;10.50;;
16387;SDS011;8303;53.446;9.988;2022-09-29T13:59:47;16.63;;;10.70;;
16387;SDS011;8303;53.446;9.988;2022-09-29T14:05:54;12.60;;;9.30;;
16387;SDS011;8303;53.446;9.988;2022-09-29T14:08:34;13.90;;;9.13;;
16387;SDS011;8303;53.446;9.988;2022-09-29T14:11:05;12.60;;;8.97;;
16387;SDS011;8303;53.446;9.988;2022-09-29T14:13:41;19.90;;;9.80;;
16387;SDS011;8303;53.446;9.988;2022-09-29T14:16:30;10.40;;;7.83;;
16387;SDS011;8303;53.446;9.988;2022-09-29T14:19:09;9.33;;;7.07;;
16387;SDS011;8303;53.446;9.988;2022-09-29T14:21:50;10.17;;;7.13;;
16387;SDS011;8303;53.446;9.988;2022-09-29T14:30:14;9.50;;;6.80;;
16387;SDS011;8303;53.446;9.988;2022-09-29T14:32:49;9.07;;;6.57;;
16387;SDS011;8303;53.446;9.988;2022-09-29T14:35:24;8.83;;;6.80;;
16387;SDS011;8303;53.446;9.988;2022-09-29T14:37:58;9.97;;;6.63;;
16387;SDS011;8303;53.446;9.988;2022-09-29T14:40:28;10.67;;;6.97;;
16387;SDS011;8303;53.446;9.988;2022-09-29T14:43:12;9.15;;;7.10;;
16387;SDS011;8303;53.446;9.988;2022-09-29T14:45:52;10.43;;;6.77;;
16387;SDS011;8303;53.446;9.988;2022-09-29T14:49:02;9.50;;;7.40;;
16387;SDS011;8303;53.446;9.988;2022-09-29T14:52:08;8.27;;;7.00;;
16387;SDS011;8303;53.446;9.988;2022-09-29T14:54:45;9.57;;;7.40;;
16387;SDS011;8303;53.446;9.988;2022-09-29T14:57:25;9.17;;;7.57;;
16387;SDS011;8303;53.446;9.988;2022-09-29T15:00:07;10.17;;;7.13;;
16387;SDS011;8303;53.446;9.988;2022-09-29T15:02:40;12.33;;;7.23;;
16387;SDS011;8303;53.446;9.988;2022-09-29T15:05:11;8.30;;;7.03;;
16387;SDS011;8303;53.446;9.988;2022-09-29T15:07:39;12.53;;;7.30;;
16387;SDS011;8303;53.446;9.988;2022-09-29T15:10:13;8.07;;;6.57;;
16387;SDS011;8303;53.446;9.988;2022-09-29T15:12:47;7.77;;;6.30;;
16387;SDS011;8303;53.446;9.988;2022-09-29T15:15:26;6.43;;;5.27;;
16387;SDS011;8303;53.446;9.988;2022-09-29T15:18:03;8.00;;;6.13;;
16387;SDS011;8303;53.446;9.988;2022-09-29T15:20:47;6.80;;;5.20;;
16387;SDS011;8303;53.446;9.988;2022-09-29T15:23:29;7.30;;;5.03;;
16387;SDS011;8303;53.446;9.988;2022-09-29T15:26:14;6.07;;;4.77;;
16387;SDS011;8303;53.446;9.988;2022-09-29T15:28:42;5.37;;;4.10;;
16387;SDS011;8303;53.446;9.988;2022-09-29T15:31:12;7.27;;;5.03;;
16387;SDS011;8303;53.446;9.988;2022-09-29T15:33:43;7.07;;;5.60;;
16387;SDS011;8303;53.446;9.988;2022-09-29T15:36:15;9.03;;;5.70;;
16387;SDS011;8303;53.446;9.988;2022-09-29T15:38:45;6.87;;;4.90;;
16387;SDS011;8303;53.446;9.988;2022-09-29T15:41:16;8.17;;;5.30;;
16387;SDS011;8303;53.446;9.988;2022-09-29T15:43:50;6.33;;;5.27;;
16387;SDS011;8303;53.446;9.988;2022-09-29T15:46:20;7.40;;;5.47;;
16387;SDS011;8303;53.446;9.988;2022-09-29T15:49:08;6.03;;;5.13;;
16387;SDS011;8303;53.446;9.988;2022-09-29T15:51:41;7.17;;;5.33;;
16387;SDS011;8303;53.446;9.988;2022-09-29T15:54:11;8.43;;;6.20;;
16387;SDS011;8303;53.446;9.988;2022-09-29T15:56:39;10.10;;;6.80;;
16387;SDS011;8303;53.446;9.988;2022-09-29T15:59:37;12.13;;;7.23;;
16387;SDS011;8303;53.446;9.988;2022-09-29T16:02:11;10.10;;;6.50;;
16387;SDS011;8303;53.446;9.988;2022-09-29T16:04:45;9.97;;;6.87;;
16387;SDS011;8303;53.446;9.988;2022-09-29T16:07:17;11.07;;;7.77;;
16387;SDS011;8303;53.446;9.988;2022-09-29T16:09:48;9.67;;;7.53;;
16387;SDS011;8303;53.446;9.988;2022-09-29T16:12:19;11.53;;;7.83;;
16387;SDS011;8303;53.446;9.988;2022-09-29T16:14:46;10.80;;;7.67;;
16387;SDS011;8303;53.446;9.988;2022-09-29T16:17:19;10.70;;;7.17;;
16387;SDS011;8303;53.446;9.988;2022-09-29T16:19:47;9.27;;;7.63;;
16387;SDS011;8303;53.446;9.988;2022-09-29T16:22:18;10.33;;;7.87;;
16387;SDS011;8303;53.446;9.988;2022-09-29T16:24:52;9.03;;;7.87;;
16387;SDS011;8303;53.446;9.988;2022-09-29T16:27:40;13.67;;;7.63;;
16387;SDS011;8303;53.446;9.988;2022-09-29T16:30:17;10.83;;;7.20;;
16387;SDS011;8303;53.446;9.988;2022-09-29T16:32:50;9.40;;;7.97;;
16387;SDS011;8303;53.446;9.988;2022-09-29T16:35:41;11.23;;;7.47;;
16387;SDS011;8303;53.446;9.988;2022-09-29T16:38:18;9.37;;;6.60;;
16387;SDS011;8303;53.446;9.988;2022-09-29T16:40:52;9.33;;;7.37;;
16387;SDS011;8303;53.446;9.988;2022-09-29T16:43:21;8.83;;;6.97;;
16387;SDS011;8303;53.446;9.988;2022-09-29T16:45:52;11.10;;;6.67;;
16387;SDS011;8303;53.446;9.988;2022-09-29T16:48:21;11.13;;;7.47;;
16387;SDS011;8303;53.446;9.988;2022-09-29T16:50:51;9.83;;;7.10;;
16387;SDS011;8303;53.446;9.988;2022-09-29T16:53:24;11.80;;;7.97;;
16387;SDS011;8303;53.446;9.988;2022-09-29T16:55:54;12.93;;;8.47;;
16387;SDS011;8303;53.446;9.988;2022-09-29T16:58:26;15.67;;;10.53;;
16387;SDS011;8303;53.446;9.988;2022-09-29T17:00:54;17.83;;;12.20;;
16387;SDS011;8303;53.446;9.988;2022-09-29T17:03:21;18.03;;;11.60;;
16387;SDS011;8303;53.446;9.988;2022-09-29T17:05:48;17.37;;;11.97;;
16387;SDS011;8303;53.446;9.988;2022-09-29T17:08:19;17.77;;;10.57;;
16387;SDS011;8303;53.446;9.988;2022-09-29T17:10:48;15.00;;;10.00;;
16387;SDS011;8303;53.446;9.988;2022-09-29T17:13:16;15.40;;;10.87;;
16387;SDS011;8303;53.446;9.988;2022-09-29T17:15:44;14.67;;;10.37;;
16387;SDS011;8303;53.446;9.988;2022-09-29T17:18:13;15.67;;;10.03;;
16387;SDS011;8303;53.446;9.988;2022-09-29T17:20:41;14.57;;;10.13;;
16387;SDS011;8303;53.446;9.988;2022-09-29T17:23:10;13.67;;;9.97;;
16387;SDS011;8303;53.446;9.988;2022-09-29T17:25:37;13.70;;;10.10;;
16387;SDS011;8303;53.446;9.988;2022-09-29T17:28:09;12.23;;;9.57;;
16387;SDS011;8303;53.446;9.988;2022-09-29T17:30:39;13.43;;;9.77;;
16387;SDS011;8303;53.446;9.988;2022-09-29T17:33:08;13.70;;;9.70;;
16387;SDS011;8303;53.446;9.988;2022-09-29T17:35:37;14.73;;;10.50;;
16387;SDS011;8303;53.446;9.988;2022-09-29T17:38:05;16.47;;;10.33;;
16387;SDS011;8303;53.446;9.988;2022-09-29T17:40:35;13.83;;;10.67;;
16387;SDS011;8303;53.446;9.988;2022-09-29T17:43:07;17.10;;;10.70;;
16387;SDS011;8303;53.446;9.988;2022-09-29T17:45:34;17.20;;;11.03;;
16387;SDS011;8303;53.446;9.988;2022-09-29T17:48:05;16.07;;;10.77;;
16387;SDS011;8303;53.446;9.988;2022-09-29T17:50:34;15.00;;;10.60;;
16387;SDS011;8303;53.446;9.988;2022-09-29T17:53:04;14.57;;;11.00;;
16387;SDS011;8303;53.446;9.988;2022-09-29T17:55:35;15.70;;;11.57;;
16387;SDS011;8303;53.446;9.988;2022-09-29T17:58:02;19.33;;;11.47;;
16387;SDS011;8303;53.446;9.988;2022-09-29T18:00:30;16.43;;;11.33;;
16387;SDS011;8303;53.446;9.988;2022-09-29T18:03:02;15.87;;;11.03;;
16387;SDS011;8303;53.446;9.988;2022-09-29T18:05:29;18.43;;;11.53;;
16387;SDS011;8303;53.446;9.988;2022-09-29T18:07:57;17.70;;;11.77;;
16387;SDS011;8303;53.446;9.988;2022-09-29T18:10:26;16.83;;;11.80;;
16387;SDS011;8303;53.446;9.988;2022-09-29T18:12:56;19.87;;;13.53;;
16387;SDS011;8303;53.446;9.988;2022-09-29T18:15:23;18.87;;;12.37;;
16387;SDS011;8303;53.446;9.988;2022-09-29T18:17:53;18.27;;;12.57;;
16387;SDS011;8303;53.446;9.988;2022-09-29T18:20:22;19.60;;;12.73;;
16387;SDS011;8303;53.446;9.988;2022-09-29T18:22:51;19.10;;;12.93;;
16387;SDS011;8303;53.446;9.988;2022-09-29T18:25:18;18.53;;;13.63;;
16387;SDS011;8303;53.446;9.988;2022-09-29T18:27:45;22.60;;;14.00;;
16387;SDS011;8303;53.446;9.988;2022-09-29T18:30:15;18.97;;;13.10;;
16387;SDS011;8303;53.446;9.988;2022-09-29T18:32:44;20.73;;;13.47;;
16387;SDS011;8303;53.446;9.988;2022-09-29T18:35:12;22.37;;;15.27;;
16387;SDS011;8303;53.446;9.988;2022-09-29T18:37:40;20.97;;;14.23;;
16387;SDS011;8303;53.446;9.988;2022-09-29T18:40:07;21.13;;;14.07;;
16387;SDS011;8303;53.446;9.988;2022-09-29T18:42:38;23.17;;;14.07;;
16387;SDS011;8303;53.446;9.988;2022-09-29T18:45:08;23.47;;;13.97;;
16387;SDS011;8303;53.446;9.988;2022-09-29T18:47:39;22.43;;;13.37;;
16387;SDS011;8303;53.446;9.988;2022-09-29T18:50:11;16.73;;;12.17;;
16387;SDS011;8303;53.446;9.988;2022-09-29T18:52:40;22.60;;;13.67;;
16387;SDS011;8303;53.446;9.988;2022-09-29T18:55:07;20.10;;;13.00;;
16387;SDS011;8303;53.446;9.988;2022-09-29T18:57:35;19.87;;;13.17;;
16387;SDS011;8303;53.446;9.988;2022-09-29T19:00:02;22.47;;;14.17;;
16387;SDS011;8303;53.446;9.988;2022-09-29T19:02:34;19.37;;;13.60;;
16387;SDS011;8303;53.446;9.988;2022-09-29T19:05:02;18.30;;;13.00;;
16387;SDS011;8303;53.446;9.988;2022-09-29T19:07:31;18.23;;;12.33;;
16387;SDS011;8303;53.446;9.988;2022-09-29T19:09:58;21.63;;;13.33;;
16387;SDS011;8303;53.446;9.988;2022-09-29T19:12:24;20.80;;;13.57;;
16387;SDS011;8303;53.446;9.988;2022-09-29T19:14:53;18.47;;;12.67;;
16387;SDS011;8303;53.446;9.988;2022-09-29T19:17:24;17.67;;;13.30;;
16387;SDS011;8303;53.446;9.988;2022-09-29T19:19:51;18.33;;;12.40;;
16387;SDS011;8303;53.446;9.988;2022-09-29T19:22:19;20.03;;;12.87;;
16387;SDS011;8303;53.446;9.988;2022-09-29T19:24:48;20.33;;;13.53;;
16387;SDS011;8303;53.446;9.988;2022-09-29T19:27:15;20.23;;;12.73;;
16387;SDS011;8303;53.446;9.988;2022-09-29T19:29:42;17.43;;;12.50;;
16387;SDS011;8303;53.446;9.988;2022-09-29T19:32:08;20.47;;;12.90;;
16387;SDS011;8303;53.446;9.988;2022-09-29T19:34:36;17.47;;;11.63;;
16387;SDS011;8303;53.446;9.988;2022-09-29T19:37:03;15.43;;;11.20;;
16387;SDS011;8303;53.446;9.988;2022-09-29T19:39:32;16.50;;;12.07;;
16387;SDS011;8303;53.446;9.988;2022-09-29T19:41:58;15.27;;;11.10;;
16387;SDS011;8303;53.446;9.988;2022-09-29T19:44:25;18.20;;;11.53;;
16387;SDS011;8303;53.446;9.988;2022-09-29T19:46:56;19.43;;;12.00;;
16387;SDS011;8303;53.446;9.988;2022-09-29T19:49:25;16.50;;;11.23;;
16387;SDS011;8303;53.446;9.988;2022-09-29T19:51:52;13.33;;;10.20;;
16387;SDS011;8303;53.446;9.988;2022-09-29T19:54:21;14.97;;;10.03;;
16387;SDS011;8303;53.446;9.988;2022-09-29T19:56:53;14.03;;;10.77;;
16387;SDS011;8303;53.446;9.988;2022-09-29T19:59:22;17.90;;;10.87;;
16387;SDS011;8303;53.446;9.988;2022-09-29T20:01:53;13.57;;;9.83;;
16387;SDS011;8303;53.446;9.988;2022-09-29T20:04:21;14.67;;;10.90;;
16387;SDS011;8303;53.446;9.988;2022-09-29T20:06:49;12.67;;;9.53;;
16387;SDS011;8303;53.446;9.988;2022-09-29T20:09:16;12.10;;;9.77;;
16387;SDS011;8303;53.446;9.988;2022-09-29T20:11:44;13.43;;;9.63;;
16387;SDS011;8303;53.446;9.988;2022-09-29T20:14:15;12.70;;;9.23;;
16387;SDS011;8303;53.446;9.988;2022-09-29T20:16:44;17.27;;;11.63;;
16387;SDS011;8303;53.446;9.988;2022-09-29T20:19:13;13.47;;;10.03;;
16387;SDS011;8303;53.446;9.988;2022-09-29T20:21:41;13.37;;;10.57;;
16387;SDS011;8303;53.446;9.988;2022-09-29T20:24:09;13.67;;;10.20;;